sensor_id;sensor_type;location;lat;lon;timestamp;P1;durP1;ratioP1;P2;durP2;ratioP2
81312;SDS011;70780;52.722;5.724;2023-07-02T01:35:41;7.05;;;3.22;;
81312;SDS011;70780;52.722;5.724;2023-07-02T01:38:11;7.50;;;3.30;;
81312;SDS011;70780;52.722;5.724;2023-07-02T01:40:41;5.80;;;2.90;;
81312;SDS011;70780;52.722;5.724;2023-07-02T01:43:10;7.95;;;3.10;;
81312;SDS011;70780;52.722;5.724;2023-07-02T01:45:40;7.00;;;3.20;;
81312;SDS011;70780;52.722;5.724;2023-07-02T01:48:10;8.05;;;3.13;;
81312;SDS011;70780;52.722;5.724;2023-07-02T01:50:42;5.60;;;2.88;;
81312;SDS011;70780;52.722;5.724;2023-07-02T01:53:12;5.75;;;3.05;;
81312;SDS011;70780;52.722;5.724;2023-07-02T01:55:42;7.32;;;3.55;;
81312;SDS011;70780;52.722;5.724;2023-07-02T01:58:11;7.00;;;3.00;;
81312;SDS011;70780;52.722;5.724;2023-07-02T02:00:40;6.68;;;2.90;;
81312;SDS011;70780;52.722;5.724;2023-07-02T02:03:09;6.82;;;3.05;;
81312;SDS011;70780;52.722;5.724;2023-07-02T02:05:39;9.55;;;4.00;;
81312;SDS011;70780;52.722;5.724;2023-07-02T02:08:11;5.30;;;3.03;;
81312;SDS011;70780;52.722;5.724;2023-07-02T02:10:40;8.95;;;3.50;;
81312;SDS011;70780;52.722;5.724;2023-07-02T02:13:09;8.10;;;3.13;;
81312;SDS011;70780;52.722;5.724;2023-07-02T02:15:39;7.68;;;3.08;;
81312;SDS011;70780;52.722;5.724;2023-07-02T02:18:09;8.80;;;3.33;;
81312;SDS011;70780;52.722;5.724;2023-07-02T02:20:39;7.18;;;3.25;;
81312;SDS011;70780;52.722;5.724;2023-07-02T02:23:11;9.68;;;3.33;;
81312;SDS011;70780;52.722;5.724;2023-07-02T02:25:40;10.65;;;4.05;;
81312;SDS011;70780;52.722;5.724;2023-07-02T02:28:10;7.28;;;3.03;;
81312;SDS011;70780;52.722;5.724;2023-07-02T02:30:40;7.20;;;3.05;;
81312;SDS011;70780;52.722;5.724;2023-07-02T02:33:09;7.82;;;3.65;;
81312;SDS011;70780;52.722;5.724;2023-07-02T02:35:39;8.25;;;3.17;;
81312;SDS011;70780;52.722;5.724;2023-07-02T02:38:11;8.98;;;3.40;;
81312;SDS011;70780;52.722;5.724;2023-07-02T02:43:13;7.25;;;3.42;;
81312;SDS011;70780;52.722;5.724;2023-07-02T02:45:45;7.15;;;3.30;;
81312;SDS011;70780;52.722;5.724;2023-07-02T02:48:15;7.90;;;3.30;;
81312;SDS011;70780;52.722;5.724;2023-07-02T02:53:36;8.70;;;3.00;;
81312;SDS011;70780;52.722;5.724;2023-07-02T02:56:05;7.18;;;2.95;;
81312;SDS011;70780;52.722;5.724;2023-07-02T02:58:35;7.57;;;3.20;;
81312;SDS011;70780;52.722;5.724;2023-07-02T03:01:04;10.13;;;3.35;;
81312;SDS011;70780;52.722;5.724;2023-07-02T03:03:37;7.15;;;3.00;;
81312;SDS011;70780;52.722;5.724;2023-07-02T03:06:11;6.05;;;2.83;;
81312;SDS011;70780;52.722;5.724;2023-07-02T03:08:44;9.07;;;3.35;;
81312;SDS011;70780;52.722;5.724;2023-07-02T03:11:13;7.45;;;3.53;;
81312;SDS011;70780;52.722;5.724;2023-07-02T03:13:43;8.48;;;2.97;;
81312;SDS011;70780;52.722;5.724;2023-07-02T03:16:12;6.13;;;3.05;;
81312;SDS011;70780;52.722;5.724;2023-07-02T03:18:41;7.20;;;3.03;;
81312;SDS011;70780;52.722;5.724;2023-07-02T03:21:10;8.30;;;2.88;;
81312;SDS011;70780;52.722;5.724;2023-07-02T03:23:40;7.82;;;2.50;;
81312;SDS011;70780;52.722;5.724;2023-07-02T03:26:12;6.90;;;3.15;;
81312;SDS011;70780;52.722;5.724;2023-07-02T03:28:42;5.53;;;2.65;;
81312;SDS011;70780;52.722;5.724;2023-07-02T03:31:11;9.32;;;3.33;;
81312;SDS011;70780;52.722;5.724;2023-07-02T03:33:40;6.47;;;3.08;;
81312;SDS011;70780;52.722;5.724;2023-07-02T03:36:10;9.57;;;3.50;;
81312;SDS011;70780;52.722;5.724;2023-07-02T03:38:39;8.90;;;3.67;;
81312;SDS011;70780;52.722;5.724;2023-07-02T03:41:08;9.02;;;4.03;;
81312;SDS011;70780;52.722;5.724;2023-07-02T03:43:40;7.78;;;3.38;;
81312;SDS011;70780;52.722;5.724;2023-07-02T03:46:10;9.55;;;3.38;;
81312;SDS011;70780;52.722;5.724;2023-07-02T03:48:39;8.13;;;3.03;;
81312;SDS011;70780;52.722;5.724;2023-07-02T03:51:09;7.30;;;3.63;;
81312;SDS011;70780;52.722;5.724;2023-07-02T03:53:40;11.25;;;3.20;;
81312;SDS011;70780;52.722;5.724;2023-07-02T03:56:09;7.32;;;3.30;;
81312;SDS011;70780;52.722;5.724;2023-07-02T03:58:42;9.57;;;4.20;;
81312;SDS011;70780;52.722;5.724;2023-07-02T04:01:11;8.65;;;3.10;;
81312;SDS011;70780;52.722;5.724;2023-07-02T04:03:41;6.40;;;2.70;;
81312;SDS011;70780;52.722;5.724;2023-07-02T04:06:16;4.93;;;2.60;;
81312;SDS011;70780;52.722;5.724;2023-07-02T04:08:45;6.25;;;3.05;;
81312;SDS011;70780;52.722;5.724;2023-07-02T04:11:15;7.53;;;3.17;;
81312;SDS011;70780;52.722;5.724;2023-07-02T04:13:46;7.45;;;3.17;;
81312;SDS011;70780;52.722;5.724;2023-07-02T04:16:16;6.68;;;2.90;;
81312;SDS011;70780;52.722;5.724;2023-07-02T04:18:45;8.77;;;3.40;;
81312;SDS011;70780;52.722;5.724;2023-07-02T04:21:14;8.10;;;2.97;;
81312;SDS011;70780;52.722;5.724;2023-07-02T04:23:43;7.43;;;2.67;;
81312;SDS011;70780;52.722;5.724;2023-07-02T04:26:13;4.57;;;2.95;;
81312;SDS011;70780;52.722;5.724;2023-07-02T04:28:42;7.85;;;3.47;;
81312;SDS011;70780;52.722;5.724;2023-07-02T04:31:14;8.55;;;3.30;;
81312;SDS011;70780;52.722;5.724;2023-07-02T04:36:13;9.02;;;2.80;;
81312;SDS011;70780;52.722;5.724;2023-07-02T04:38:43;6.45;;;2.70;;
81312;SDS011;70780;52.722;5.724;2023-07-02T04:41:12;9.70;;;3.08;;
81312;SDS011;70780;52.722;5.724;2023-07-02T04:43:41;9.10;;;3.22;;
81312;SDS011;70780;52.722;5.724;2023-07-02T04:46:11;7.70;;;3.00;;
81312;SDS011;70780;52.722;5.724;2023-07-02T04:48:43;8.68;;;3.35;;
81312;SDS011;70780;52.722;5.724;2023-07-02T04:51:12;8.93;;;3.40;;
81312;SDS011;70780;52.722;5.724;2023-07-02T04:53:42;5.90;;;2.90;;
81312;SDS011;70780;52.722;5.724;2023-07-02T04:56:11;7.70;;;2.92;;
81312;SDS011;70780;52.722;5.724;2023-07-02T04:58:40;10.38;;;3.53;;
81312;SDS011;70780;52.722;5.724;2023-07-02T05:01:09;9.63;;;3.28;;
81312;SDS011;70780;52.722;5.724;2023-07-02T05:03:39;7.05;;;3.13;;
81312;SDS011;70780;52.722;5.724;2023-07-02T05:06:11;9.02;;;3.03;;
81312;SDS011;70780;52.722;5.724;2023-07-02T05:08:40;7.68;;;2.95;;
81312;SDS011;70780;52.722;5.724;2023-07-02T05:11:09;7.65;;;2.83;;
81312;SDS011;70780;52.722;5.724;2023-07-02T05:13:39;8.88;;;3.50;;
81312;SDS011;70780;52.722;5.724;2023-07-02T09:47:01;3.95;;;1.77;;
81312;SDS011;70780;52.722;5.724;2023-07-02T09:49:32;5.05;;;2.00;;
81312;SDS011;70780;52.722;5.724;2023-07-02T09:52:03;4.30;;;1.50;;
81312;SDS011;70780;52.722;5.724;2023-07-02T09:54:33;5.03;;;2.10;;
81312;SDS011;70780;52.722;5.724;2023-07-02T09:57:03;6.75;;;2.20;;
81312;SDS011;70780;52.722;5.724;2023-07-02T09:59:35;6.88;;;2.35;;
81312;SDS011;70780;52.722;5.724;2023-07-02T10:02:09;5.50;;;2.25;;
81312;SDS011;70780;52.722;5.724;2023-07-02T10:04:40;5.30;;;2.13;;
81312;SDS011;70780;52.722;5.724;2023-07-02T10:07:10;7.90;;;2.70;;
81312;SDS011;70780;52.722;5.724;2023-07-02T10:09:42;8.88;;;2.35;;
81312;SDS011;70780;52.722;5.724;2023-07-02T10:12:16;12.50;;;2.35;;
81312;SDS011;70780;52.722;5.724;2023-07-02T10:14:47;8.05;;;2.22;;
81312;SDS011;70780;52.722;5.724;2023-07-02T10:17:28;9.85;;;2.50;;
81312;SDS011;70780;52.722;5.724;2023-07-02T10:19:58;7.05;;;2.15;;
81312;SDS011;70780;52.722;5.724;2023-07-02T10:22:41;5.15;;;2.38;;
81312;SDS011;70780;52.722;5.724;2023-07-02T10:25:11;5.28;;;1.85;;
81312;SDS011;70780;52.722;5.724;2023-07-02T10:27:40;7.15;;;2.15;;
81312;SDS011;70780;52.722;5.724;2023-07-02T10:30:11;5.65;;;2.10;;
81312;SDS011;70780;52.722;5.724;2023-07-02T10:32:43;4.85;;;1.85;;
81312;SDS011;70780;52.722;5.724;2023-07-02T10:35:13;4.68;;;1.90;;
81312;SDS011;70780;52.722;5.724;2023-07-02T10:37:43;5.63;;;2.05;;
81312;SDS011;70780;52.722;5.724;2023-07-02T10:40:13;6.80;;;2.13;;
81312;SDS011;70780;52.722;5.724;2023-07-02T10:42:46;3.95;;;2.13;;
81312;SDS011;70780;52.722;5.724;2023-07-02T10:45:16;5.93;;;2.00;;
81312;SDS011;70780;52.722;5.724;2023-07-02T10:47:48;6.47;;;2.28;;
81312;SDS011;70780;52.722;5.724;2023-07-02T10:50:18;5.53;;;1.90;;
81312;SDS011;70780;52.722;5.724;2023-07-02T10:52:49;7.10;;;1.90;;
81312;SDS011;70780;52.722;5.724;2023-07-02T10:55:18;7.47;;;2.20;;
81312;SDS011;70780;52.722;5.724;2023-07-02T10:57:48;4.75;;;1.70;;
81312;SDS011;70780;52.722;5.724;2023-07-02T11:00:18;4.63;;;1.40;;
81312;SDS011;70780;52.722;5.724;2023-07-02T11:02:51;5.60;;;1.70;;
81312;SDS011;70780;52.722;5.724;2023-07-02T11:05:20;5.20;;;1.70;;
81312;SDS011;70780;52.722;5.724;2023-07-02T11:07:50;5.88;;;2.10;;
81312;SDS011;70780;52.722;5.724;2023-07-02T11:10:23;4.55;;;1.77;;
81312;SDS011;70780;52.722;5.724;2023-07-02T11:12:53;5.07;;;1.90;;
81312;SDS011;70780;52.722;5.724;2023-07-02T11:15:23;4.22;;;1.52;;
81312;SDS011;70780;52.722;5.724;2023-07-02T11:17:55;5.05;;;1.55;;
81312;SDS011;70780;52.722;5.724;2023-07-02T11:20:24;5.18;;;1.90;;
81312;SDS011;70780;52.722;5.724;2023-07-02T11:23:02;4.28;;;1.40;;
81312;SDS011;70780;52.722;5.724;2023-07-02T11:25:32;5.10;;;2.20;;
81312;SDS011;70780;52.722;5.724;2023-07-02T11:28:04;5.55;;;2.15;;
81312;SDS011;70780;52.722;5.724;2023-07-02T11:33:15;6.88;;;1.77;;
81312;SDS011;70780;52.722;5.724;2023-07-02T11:35:44;5.65;;;1.58;;
81312;SDS011;70780;52.722;5.724;2023-07-02T11:38:14;7.95;;;1.80;;
81312;SDS011;70780;52.722;5.724;2023-07-02T11:40:43;4.35;;;1.50;;
81312;SDS011;70780;52.722;5.724;2023-07-02T11:43:14;4.55;;;1.70;;
81312;SDS011;70780;52.722;5.724;2023-07-02T11:45:43;3.95;;;1.67;;
81312;SDS011;70780;52.722;5.724;2023-07-02T11:48:15;6.40;;;1.90;;
81312;SDS011;70780;52.722;5.724;2023-07-02T11:50:44;7.00;;;2.13;;
81312;SDS011;70780;52.722;5.724;2023-07-02T11:53:14;6.80;;;1.83;;
81312;SDS011;70780;52.722;5.724;2023-07-02T11:55:43;5.57;;;2.00;;
81312;SDS011;70780;52.722;5.724;2023-07-02T11:58:12;4.22;;;1.70;;
81312;SDS011;70780;52.722;5.724;2023-07-02T12:00:41;5.25;;;1.67;;
81312;SDS011;70780;52.722;5.724;2023-07-02T12:03:11;5.45;;;1.90;;
81312;SDS011;70780;52.722;5.724;2023-07-02T12:05:43;4.65;;;1.73;;
81312;SDS011;70780;52.722;5.724;2023-07-02T12:08:12;5.05;;;1.90;;
81312;SDS011;70780;52.722;5.724;2023-07-02T12:10:41;5.22;;;2.10;;
81312;SDS011;70780;52.722;5.724;2023-07-02T12:13:11;4.63;;;1.77;;
81312;SDS011;70780;52.722;5.724;2023-07-02T12:15:40;4.75;;;1.73;;
81312;SDS011;70780;52.722;5.724;2023-07-02T12:18:10;4.72;;;1.98;;
81312;SDS011;70780;52.722;5.724;2023-07-02T12:20:39;4.00;;;1.63;;
81312;SDS011;70780;52.722;5.724;2023-07-02T12:23:11;6.30;;;1.95;;
81312;SDS011;70780;52.722;5.724;2023-07-02T12:25:40;4.65;;;2.05;;
81312;SDS011;70780;52.722;5.724;2023-07-02T12:28:10;5.57;;;1.98;;
81312;SDS011;70780;52.722;5.724;2023-07-02T12:30:39;4.50;;;1.88;;
81312;SDS011;70780;52.722;5.724;2023-07-02T12:33:08;3.35;;;2.00;;
81312;SDS011;70780;52.722;5.724;2023-07-02T12:35:38;6.03;;;2.22;;
81312;SDS011;70780;52.722;5.724;2023-07-02T12:38:08;6.75;;;2.05;;
81312;SDS011;70780;52.722;5.724;2023-07-02T12:40:40;6.07;;;2.03;;
81312;SDS011;70780;52.722;5.724;2023-07-02T12:43:10;4.55;;;2.05;;
81312;SDS011;70780;52.722;5.724;2023-07-02T12:45:39;5.13;;;1.83;;
81312;SDS011;70780;52.722;5.724;2023-07-02T12:48:08;4.25;;;1.98;;
81312;SDS011;70780;52.722;5.724;2023-07-02T12:50:38;5.95;;;2.13;;
81312;SDS011;70780;52.722;5.724;2023-07-02T12:53:07;5.35;;;2.30;;
81312;SDS011;70780;52.722;5.724;2023-07-02T12:55:39;4.97;;;1.88;;
81312;SDS011;70780;52.722;5.724;2023-07-02T12:58:08;5.65;;;2.72;;
81312;SDS011;70780;52.722;5.724;2023-07-02T13:00:38;5.72;;;2.30;;
81312;SDS011;70780;52.722;5.724;2023-07-02T13:03:09;5.93;;;2.15;;
81312;SDS011;70780;52.722;5.724;2023-07-02T14:51:33;5.20;;;2.22;;
81312;SDS011;70780;52.722;5.724;2023-07-02T14:54:02;3.55;;;2.13;;
81312;SDS011;70780;52.722;5.724;2023-07-02T14:56:32;4.40;;;2.13;;
81312;SDS011;70780;52.722;5.724;2023-07-02T14:59:03;4.70;;;2.42;;
81312;SDS011;70780;52.722;5.724;2023-07-02T15:01:34;4.03;;;1.90;;
81312;SDS011;70780;52.722;5.724;2023-07-02T15:04:04;5.65;;;2.40;;
81312;SDS011;70780;52.722;5.724;2023-07-02T15:06:35;5.38;;;2.67;;
81312;SDS011;70780;52.722;5.724;2023-07-02T15:09:05;4.72;;;2.20;;
81312;SDS011;70780;52.722;5.724;2023-07-02T15:11:34;7.28;;;2.50;;
81312;SDS011;70780;52.722;5.724;2023-07-02T15:14:03;4.85;;;2.38;;
81312;SDS011;70780;52.722;5.724;2023-07-02T15:16:33;5.40;;;2.33;;
81312;SDS011;70780;52.722;5.724;2023-07-02T15:19:02;6.28;;;2.40;;
81312;SDS011;70780;52.722;5.724;2023-07-02T15:21:32;6.10;;;2.08;;
81312;SDS011;70780;52.722;5.724;2023-07-02T15:24:04;6.20;;;2.10;;
81312;SDS011;70780;52.722;5.724;2023-07-02T15:26:36;5.57;;;2.30;;
81312;SDS011;70780;52.722;5.724;2023-07-02T15:29:05;6.35;;;2.55;;
81312;SDS011;70780;52.722;5.724;2023-07-02T15:31:35;5.88;;;2.33;;
81312;SDS011;70780;52.722;5.724;2023-07-02T15:34:07;5.20;;;2.33;;
81312;SDS011;70780;52.722;5.724;2023-07-02T15:36:36;4.78;;;2.60;;
81312;SDS011;70780;52.722;5.724;2023-07-02T15:39:08;4.40;;;2.47;;
81312;SDS011;70780;52.722;5.724;2023-07-02T22:35:48;4.43;;;2.00;;
81312;SDS011;70780;52.722;5.724;2023-07-02T22:38:17;7.20;;;2.40;;
81312;SDS011;70780;52.722;5.724;2023-07-02T22:40:47;7.60;;;2.60;;
81312;SDS011;70780;52.722;5.724;2023-07-02T22:43:16;5.60;;;1.95;;
81312;SDS011;70780;52.722;5.724;2023-07-02T22:45:45;4.78;;;1.85;;
81312;SDS011;70780;52.722;5.724;2023-07-02T22:48:14;4.88;;;2.25;;
81312;SDS011;70780;52.722;5.724;2023-07-02T22:50:44;5.28;;;2.25;;
81312;SDS011;70780;52.722;5.724;2023-07-02T22:53:16;5.10;;;1.90;;
81312;SDS011;70780;52.722;5.724;2023-07-02T22:55:46;4.00;;;2.03;;
81312;SDS011;70780;52.722;5.724;2023-07-02T22:58:15;5.53;;;2.28;;
81312;SDS011;70780;52.722;5.724;2023-07-02T23:00:45;7.15;;;2.40;;
81312;SDS011;70780;52.722;5.724;2023-07-02T23:03:14;5.32;;;2.45;;
81312;SDS011;70780;52.722;5.724;2023-07-02T23:05:43;9.52;;;2.72;;
81312;SDS011;70780;52.722;5.724;2023-07-02T23:08:13;8.20;;;2.25;;
81312;SDS011;70780;52.722;5.724;2023-07-02T23:10:44;7.30;;;2.60;;
